Terminal Aerodrome Forecast
Issued by NWS Blacksburg, VA

Home | Current Version | Previous Version | Text Only | Print | Product List | Glossary On
Versions: 1 2 3 4 5 6 7 8 9 10 11 12 13 14 15 16 17 18 19 20 21 22
000
FTUS41 KRNK 240418 AAC
TAFBLF
TAF AMD
KBLF 240418Z 2404/2424 27007KT 6SM -SHRA BR FEW045 BKN070
      TEMPO 2404/2405 3SM SHRA BR BKN040
     FM240800 27006KT P6SM OVC015
     FM241500 28009G18KT P6SM SCT040 SCT250=

USA.gov is the U.S. government's official web portal to all federal, state and local government web resources and services.